createdAt,value
2023-03-27T00:01:12.541Z,97226.83
2023-03-27T00:03:39.927Z,97223.49
2023-03-27T00:06:11.533Z,97224.66
2023-03-27T00:08:38.403Z,97220.52
2023-03-27T00:11:06.584Z,97217.29
2023-03-27T00:13:33.926Z,97212.61
2023-03-27T00:16:02.228Z,97211.56
2023-03-27T00:18:31.807Z,97206.55
2023-03-27T00:21:00.397Z,97205.17
2023-03-27T00:23:30.234Z,97203.38
2023-03-27T00:25:57.366Z,97208.05
2023-03-27T00:28:26.656Z,97202.39
2023-03-27T00:30:55.306Z,97199.38
2023-03-27T00:33:23.708Z,97196.48
2023-03-27T00:35:51.077Z,97185.91
2023-03-27T00:38:18.527Z,97183.46
2023-03-27T00:40:46.264Z,97177.36
2023-03-27T00:43:27.882Z,97173.52
2023-03-27T00:45:58.063Z,97167.35
2023-03-27T00:48:25.545Z,97159.81
2023-03-27T00:50:52.969Z,97153.73
2023-03-27T00:53:26.107Z,97132.98
2023-03-27T00:55:55.264Z,97119.45
2023-03-27T00:58:24.379Z,97116.21
2023-03-27T01:00:52.676Z,97115.13
2023-03-27T01:03:20.943Z,97108.91
2023-03-27T01:05:49.921Z,97101.74
2023-03-27T01:08:17.292Z,97106.73
2023-03-27T01:10:57.903Z,97103.94
2023-03-27T01:13:38.977Z,97099.65
2023-03-27T01:16:11.444Z,97102.70
2023-03-27T01:18:57.408Z,97101.48
2023-03-27T01:21:42.673Z,97100.39
2023-03-27T01:24:42.344Z,97103.25
2023-03-27T01:27:30.676Z,97093.52
2023-03-27T01:30:02.335Z,97095.59
2023-03-27T01:32:49.335Z,97096.91
2023-03-27T01:35:31.636Z,97091.42
2023-03-27T01:37:58.592Z,97085.16
2023-03-27T01:40:52.051Z,97082.48
2023-03-27T01:43:26.060Z,97081.35
2023-03-27T01:45:53.024Z,97077.27
2023-03-27T01:48:40.577Z,97076.08
2023-03-27T01:51:11.578Z,97090.61
2023-03-27T01:53:42.323Z,97080.39
2023-03-27T01:56:13.001Z,97079.09
2023-03-27T01:58:45.752Z,97076.78
2023-03-27T02:01:15.903Z,97076.15
2023-03-27T02:03:44.954Z,97073.22
2023-03-27T02:06:38.615Z,97065.34
2023-03-27T02:09:15.278Z,97056.98
2023-03-27T02:11:58.512Z,97054.06
2023-03-27T02:14:30.374Z,97050.98
2023-03-27T02:17:01.726Z,97049.16
2023-03-27T02:19:34.621Z,97050.34
2023-03-27T02:22:01.816Z,97043.75
2023-03-27T02:24:29.365Z,97035.73
2023-03-27T02:26:59.354Z,97038.83
2023-03-27T02:29:29.477Z,97029.97
2023-03-27T02:31:57.084Z,97026.88
2023-03-27T02:34:26.952Z,97023.95
2023-03-27T02:36:56.791Z,97020.30
2023-03-27T02:39:45.731Z,97015.38
2023-03-27T02:42:20.369Z,97014.98
2023-03-27T02:45:01.763Z,97018.23
2023-03-27T02:47:40.700Z,97013.55
2023-03-27T02:50:09.227Z,97011.88
2023-03-27T02:52:50.746Z,97005.25
2023-03-27T02:55:20.401Z,96994.38
2023-03-27T02:57:52.338Z,96998.59
2023-03-27T03:00:27.894Z,96995.35
2023-03-27T03:03:17.955Z,96994.55
2023-03-27T03:05:50.410Z,96987.98
2023-03-27T03:08:17.254Z,96984.48
2023-03-27T03:10:45.545Z,96981.63
2023-03-27T03:13:13.662Z,96978.77
2023-03-27T03:15:42.109Z,96975.86
2023-03-27T03:18:09.019Z,96969.15
2023-03-27T03:20:35.949Z,96964.47
2023-03-27T03:23:04.259Z,96957.22
2023-03-27T03:25:31.082Z,96963.33
2023-03-27T03:28:00.936Z,96949.17
2023-03-27T03:30:29.738Z,96943.48
2023-03-27T03:33:06.417Z,96935.46
2023-03-27T03:35:34.435Z,96925.62
2023-03-27T03:38:03.286Z,96919.27
2023-03-27T03:40:32.506Z,96911.52
2023-03-27T03:42:59.441Z,96904.72
2023-03-27T03:45:28.636Z,96904.46
2023-03-27T03:47:55.616Z,96896.63
2023-03-27T03:50:23.435Z,96893.50
2023-03-27T03:52:50.459Z,96889.75
2023-03-27T03:55:17.269Z,96886.37
2023-03-27T03:57:46.599Z,96883.36
2023-03-27T04:00:18.323Z,96882.17
2023-03-27T04:02:52.841Z,96876.11
2023-03-27T04:05:20.331Z,96874.93
2023-03-27T04:07:51.371Z,96871.29
2023-03-27T04:10:30.156Z,96868.92
2023-03-27T04:12:59.010Z,96861.09
2023-03-27T04:15:31.611Z,96855.77
2023-03-27T04:18:15.884Z,96856.23
2023-03-27T04:20:43.112Z,96848.27
2023-03-27T04:23:11.666Z,96844.84
2023-03-27T04:25:39.758Z,96839.97
2023-03-27T04:28:09.786Z,96827.23
2023-03-27T04:30:43.483Z,96824.38
2023-03-27T04:33:22.688Z,96817.48
2023-03-27T04:36:08.413Z,96822.29
2023-03-27T04:38:51.844Z,96821.87
2023-03-27T04:41:18.731Z,96818.67
2023-03-27T04:43:45.685Z,96816.89
2023-03-27T04:46:12.633Z,96812.56
2023-03-27T04:48:40.175Z,96806.77
2023-03-27T04:51:26.206Z,96810.33
2023-03-27T04:53:55.795Z,96806.50
2023-03-27T04:56:23.250Z,96802.59
2023-03-27T04:58:52.974Z,96801.56
2023-03-27T05:01:20.114Z,96800.74
2023-03-27T05:04:07.806Z,96803.73
2023-03-27T05:06:40.755Z,96799.17
2023-03-27T05:09:11.289Z,96800.02
2023-03-27T05:11:38.113Z,96800.27
2023-03-27T05:14:05.178Z,96794.80
2023-03-27T05:16:33.227Z,96797.66
2023-03-27T05:19:02.913Z,96790.38
2023-03-27T05:21:36.096Z,96794.51
2023-03-27T05:24:03.127Z,96792.09
2023-03-27T05:26:30.504Z,96785.95
2023-03-27T05:28:58.771Z,96782.86
2023-03-27T05:31:26.776Z,96775.79
2023-03-27T05:34:20.330Z,96768.45
2023-03-27T05:36:48.877Z,96763.20
2023-03-27T05:39:16.380Z,96762.64
2023-03-27T05:41:45.929Z,96761.47
2023-03-27T05:44:18.207Z,96757.08
2023-03-27T05:46:45.266Z,96750.16
2023-03-27T05:49:17.246Z,96744.33
2023-03-27T05:51:47.112Z,96731.95
2023-03-27T05:54:19.278Z,96720.97
2023-03-27T05:56:55.940Z,96710.02
2023-03-27T05:59:22.841Z,96697.77
2023-03-27T06:01:51.416Z,96697.15
2023-03-27T06:04:23.591Z,96694.12
2023-03-27T06:07:12.177Z,96678.43
2023-03-27T06:09:39.908Z,96673.60
2023-03-27T06:12:26.922Z,96675.80
2023-03-27T06:15:01.306Z,96675.09
2023-03-27T06:17:37.709Z,96672.05
2023-03-27T06:20:11.770Z,96669.20
2023-03-27T06:22:41.948Z,96665.73
2023-03-27T06:25:09.436Z,96663.77
2023-03-27T06:27:37.075Z,96661.67
2023-03-27T06:30:04.718Z,96661.83
2023-03-27T06:32:31.876Z,96665.46
2023-03-27T06:34:59.484Z,96665.31
2023-03-27T06:38:04.428Z,96659.93
2023-03-27T06:40:34.673Z,96661.09
2023-03-27T06:43:06.181Z,96662.21
2023-03-27T06:45:50.257Z,96660.29
2023-03-27T06:48:52.623Z,96663.52
2023-03-27T06:51:22.476Z,96666.52
2023-03-27T06:53:49.942Z,96664.52
2023-03-27T06:56:17.909Z,96666.88
2023-03-27T06:59:04.710Z,96672.17
2023-03-27T07:01:31.981Z,96668.34
2023-03-27T07:04:22.147Z,96677.08
2023-03-27T07:07:15.448Z,96675.34
2023-03-27T07:09:43.234Z,96679.15
2023-03-27T07:12:12.303Z,96678.80
2023-03-27T07:14:40.099Z,96684.41
2023-03-27T07:17:09.591Z,96679.33
2023-03-27T07:20:05.485Z,96681.52
2023-03-27T07:22:33.172Z,96684.09
2023-03-27T07:25:04.395Z,96686.77
2023-03-27T07:27:37.087Z,96691.59
2023-03-27T07:30:07.413Z,96693.71
2023-03-27T07:32:37.513Z,96707.16
2023-03-27T07:35:05.950Z,96712.67
2023-03-27T07:37:55.587Z,96719.16
2023-03-27T07:40:39.804Z,96728.69
2023-03-27T07:43:30.205Z,96726.17
2023-03-27T07:45:57.610Z,96728.41
2023-03-27T07:48:25.223Z,96716.95
2023-03-27T07:50:58.257Z,96711.72
2023-03-27T07:53:32.737Z,96711.67
2023-03-27T07:56:08.221Z,96720.63
2023-03-27T07:58:36.255Z,96729.98
2023-03-27T08:01:04.135Z,96731.90
2023-03-27T08:03:31.810Z,96732.94
2023-03-27T08:05:59.952Z,96737.27
2023-03-27T08:08:29.158Z,96741.25
2023-03-27T08:10:58.024Z,96738.42
2023-03-27T08:13:27.294Z,96740.99
2023-03-27T08:16:04.947Z,96745.90
2023-03-27T08:18:31.884Z,96745.46
2023-03-27T08:21:00.362Z,96751.41
2023-03-27T08:23:27.313Z,96750.23
2023-03-27T08:26:20.651Z,96760.33
2023-03-27T08:28:55.659Z,96764.94
2023-03-27T08:31:25.123Z,96766.66
2023-03-27T08:33:52.783Z,96771.81
2023-03-27T08:36:23.945Z,96764.42
2023-03-27T08:38:54.740Z,96756.83
2023-03-27T08:41:28.024Z,96755.95
2023-03-27T08:44:18.419Z,96753.14
2023-03-27T08:47:02.525Z,96749.65
2023-03-27T08:49:34.077Z,96747.36
2023-03-27T08:52:15.152Z,96743.54
2023-03-27T08:54:44.322Z,96742.23
2023-03-27T08:57:17.907Z,96737.08
2023-03-27T08:59:46.712Z,96731.59
2023-03-27T09:02:13.621Z,96731.54
2023-03-27T09:04:52.543Z,96723.39
2023-03-27T09:07:38.713Z,96725.48
2023-03-27T09:10:51.184Z,96726.85
2023-03-27T09:13:28.851Z,96727.24
2023-03-27T09:16:03.915Z,96724.89
2023-03-27T09:18:37.592Z,96721.94
2023-03-27T09:21:20.713Z,96715.42
2023-03-27T09:23:47.827Z,96712.51
2023-03-27T09:26:30.408Z,96707.13
2023-03-27T09:29:01.632Z,96706.06
2023-03-27T09:31:35.819Z,96697.36
2023-03-27T09:34:07.048Z,96688.54
2023-03-27T09:36:38.225Z,96686.22
2023-03-27T09:39:07.636Z,96679.28
2023-03-27T09:41:38.631Z,96673.42
2023-03-27T09:44:12.126Z,96661.20
2023-03-27T09:46:45.667Z,96651.55
2023-03-27T09:49:14.426Z,96639.84
2023-03-27T09:51:47.260Z,96640.14
2023-03-27T09:54:49.363Z,96636.20
2023-03-27T09:57:16.508Z,96632.46
2023-03-27T10:00:01.110Z,96630.02
2023-03-27T10:02:29.986Z,96632.25
2023-03-27T10:04:57.772Z,96633.89
2023-03-27T10:07:26.173Z,96632.13
2023-03-27T10:10:19.575Z,96634.36
2023-03-27T10:13:05.885Z,96627.33
2023-03-27T10:15:45.607Z,96618.28
2023-03-27T10:18:23.815Z,96611.70
2023-03-27T10:20:55.545Z,96609.23
2023-03-27T10:23:27.054Z,96603.84
2023-03-27T10:25:58.765Z,96601.45
2023-03-27T10:28:33.934Z,96598.50
2023-03-27T10:31:30.246Z,96587.48
2023-03-27T10:34:27.042Z,96579.61
2023-03-27T10:37:19.110Z,96580.36
2023-03-27T10:39:52.404Z,96578.48
2023-03-27T10:42:32.038Z,96581.14
2023-03-27T10:44:59.683Z,96583.87
2023-03-27T10:47:30.972Z,96585.63
2023-03-27T10:50:01.940Z,96584.91
2023-03-27T10:52:57.833Z,96584.30
2023-03-27T10:55:43.997Z,96578.83
2023-03-27T10:58:19.544Z,96579.25
2023-03-27T11:00:50.691Z,96575.73
2023-03-27T11:03:39.180Z,96575.05
2023-03-27T11:06:11.707Z,96568.08
2023-03-27T11:08:57.899Z,96566.31
2023-03-27T11:11:27.718Z,96558.91
2023-03-27T11:14:01.728Z,96556.00
2023-03-27T11:16:32.397Z,96548.83
2023-03-27T11:19:15.993Z,96548.32
2023-03-27T11:22:26.639Z,96546.81
2023-03-27T11:25:02.395Z,96538.98
2023-03-27T11:27:39.064Z,96538.66
2023-03-27T11:30:15.834Z,96537.21
2023-03-27T11:32:59.395Z,96528.58
2023-03-27T11:35:33.090Z,96522.84
2023-03-27T11:38:20.182Z,96518.15
2023-03-27T11:40:49.007Z,96516.25
2023-03-27T11:43:17.680Z,96516.80
2023-03-27T11:45:44.765Z,96511.95
2023-03-27T11:48:12.210Z,96514.10
2023-03-27T11:51:10.141Z,96509.79
2023-03-27T11:53:43.766Z,96509.20
2023-03-27T11:56:25.842Z,96512.61
2023-03-27T11:59:16.845Z,96510.58
2023-03-27T12:02:05.484Z,96511.41
2023-03-27T12:04:32.647Z,96509.45
2023-03-27T12:07:40.599Z,96509.60
2023-03-27T12:10:16.843Z,96500.14
2023-03-27T12:13:28.812Z,96498.96
2023-03-27T12:16:03.072Z,96497.46
2023-03-27T12:18:43.183Z,96494.33
2023-03-27T12:21:31.378Z,96492.69
2023-03-27T12:24:14.759Z,96487.25
2023-03-27T12:27:23.769Z,96482.50
2023-03-27T12:30:07.454Z,96474.73
2023-03-27T12:32:43.733Z,96465.25
2023-03-27T12:35:14.651Z,96462.48
2023-03-27T12:37:48.977Z,96456.52
2023-03-27T12:40:36.973Z,96451.85
2023-03-27T12:43:05.507Z,96448.56
2023-03-27T12:45:38.805Z,96444.95
2023-03-27T12:48:12.091Z,96438.12
2023-03-27T12:50:52.155Z,96442.70
2023-03-27T12:53:40.971Z,96435.77
2023-03-27T12:56:12.937Z,96433.48
2023-03-27T12:58:40.980Z,96432.23
2023-03-27T13:01:22.323Z,96433.29
2023-03-27T13:04:07.786Z,96432.22
2023-03-27T13:06:42.493Z,96430.16
2023-03-27T13:09:33.395Z,96432.48
2023-03-27T13:12:22.561Z,96432.60
2023-03-27T13:14:55.856Z,96430.93
2023-03-27T13:17:38.443Z,96435.02
2023-03-27T13:20:26.182Z,96438.23
2023-03-27T13:23:13.825Z,96437.55
2023-03-27T13:25:45.462Z,96440.15
2023-03-27T13:28:29.398Z,96442.95
2023-03-27T13:31:35.371Z,96438.64
2023-03-27T13:34:28.734Z,96446.34
2023-03-27T13:37:08.746Z,96444.35
2023-03-27T13:39:55.031Z,96445.34
2023-03-27T13:42:25.466Z,96446.77
2023-03-27T13:45:01.542Z,96448.63
2023-03-27T13:47:33.934Z,96450.88
2023-03-27T13:50:20.507Z,96457.63
2023-03-27T13:52:53.394Z,96458.59
2023-03-27T13:55:49.704Z,96459.44
2023-03-27T13:58:51.857Z,96462.77
2023-03-27T14:01:27.685Z,96461.20
2023-03-27T14:04:14.095Z,96459.92
2023-03-27T14:07:00.194Z,96462.42
2023-03-27T14:09:46.900Z,96462.14
2023-03-27T14:12:38.207Z,96458.60
2023-03-27T14:15:29.000Z,96453.89
2023-03-27T14:18:32.280Z,96443.14
2023-03-27T14:21:01.479Z,96431.33
2023-03-27T14:23:32.011Z,96430.54
2023-03-27T14:26:17.596Z,96430.69
2023-03-27T14:28:46.378Z,96428.55
2023-03-27T14:31:18.762Z,96428.16
2023-03-27T14:34:24.082Z,96426.85
2023-03-27T14:36:58.815Z,96424.30
2023-03-27T14:39:37.091Z,96418.85
2023-03-27T14:42:15.028Z,96415.88
2023-03-27T14:44:44.278Z,96417.38
2023-03-27T14:47:15.780Z,96416.56
2023-03-27T14:49:45.392Z,96414.40
2023-03-27T14:52:21.495Z,96418.66
2023-03-27T14:55:15.113Z,96417.39
2023-03-27T14:57:44.110Z,96420.00
2023-03-27T15:00:19.555Z,96421.82
2023-03-27T15:02:48.578Z,96427.77
2023-03-27T15:05:17.656Z,96434.03
2023-03-27T15:07:48.594Z,96430.36
2023-03-27T15:10:24.066Z,96431.16
2023-03-27T15:13:10.880Z,96434.42
2023-03-27T15:15:43.826Z,96432.80
2023-03-27T15:18:14.886Z,96436.25
2023-03-27T15:20:42.231Z,96434.33
2023-03-27T15:23:21.258Z,96429.16
2023-03-27T15:25:57.390Z,96430.18
2023-03-27T15:28:30.600Z,96427.79
2023-03-27T15:30:59.829Z,96434.06
2023-03-27T15:33:40.680Z,96432.48
2023-03-27T15:36:10.835Z,96436.09
2023-03-27T15:38:37.961Z,96436.07
2023-03-27T15:41:14.123Z,96435.91
2023-03-27T15:43:42.912Z,96435.52
2023-03-27T15:46:15.344Z,96437.48
2023-03-27T15:48:45.115Z,96440.40
2023-03-27T15:51:26.486Z,96439.12
2023-03-27T15:53:55.295Z,96444.61
2023-03-27T15:56:30.005Z,96444.51
2023-03-27T15:58:56.958Z,96450.36
2023-03-27T16:01:35.420Z,96451.85
2023-03-27T16:04:16.320Z,96451.06
2023-03-27T16:06:47.961Z,96451.80
2023-03-27T16:09:26.582Z,96448.84
2023-03-27T16:11:55.409Z,96455.20
2023-03-27T16:14:31.743Z,96452.21
2023-03-27T16:17:10.459Z,96451.09
2023-03-27T16:19:44.528Z,96453.22
2023-03-27T16:22:12.784Z,96451.98
2023-03-27T16:24:40.147Z,96456.34
2023-03-27T16:27:08.892Z,96457.76
2023-03-27T16:29:36.358Z,96459.99
2023-03-27T16:32:03.350Z,96465.92
2023-03-27T16:34:30.308Z,96470.01
2023-03-27T16:36:57.286Z,96477.90
2023-03-27T16:39:24.311Z,96484.33
2023-03-27T16:41:51.468Z,96484.93
2023-03-27T16:44:18.547Z,96491.19
2023-03-27T16:46:46.380Z,96497.63
2023-03-27T16:49:13.445Z,96500.58
2023-03-27T16:51:40.398Z,96507.16
2023-03-27T16:54:07.353Z,96513.96
2023-03-27T16:56:34.733Z,96521.06
2023-03-27T16:59:03.701Z,96528.71
2023-03-27T17:01:30.466Z,96537.15
2023-03-27T17:03:57.717Z,96542.66
2023-03-27T17:06:24.730Z,96547.90
2023-03-27T17:08:54.917Z,96554.73
2023-03-27T17:11:22.825Z,96561.36
2023-03-27T17:13:50.318Z,96568.77
2023-03-27T17:16:17.100Z,96575.86
2023-03-27T17:18:45.659Z,96575.43
2023-03-27T17:21:12.619Z,96575.16
2023-03-27T17:23:41.702Z,96578.50
2023-03-27T17:26:14.117Z,96571.80
2023-03-27T17:28:42.871Z,96558.64
2023-03-27T17:31:09.853Z,96558.50
2023-03-27T17:33:36.842Z,96562.52
2023-03-27T17:36:10.786Z,96563.39
2023-03-27T17:38:37.842Z,96562.86
2023-03-27T17:41:05.121Z,96561.39
2023-03-27T17:43:32.148Z,96568.31
2023-03-27T17:45:59.277Z,96566.90
2023-03-27T17:48:26.388Z,96569.22
2023-03-27T17:51:07.599Z,96567.09
2023-03-27T17:53:39.307Z,96566.65
2023-03-27T17:56:10.798Z,96567.40
2023-03-27T17:58:37.713Z,96564.85
2023-03-27T18:01:17.178Z,96562.46
2023-03-27T18:03:46.624Z,96564.13
2023-03-27T18:06:16.779Z,96561.13
2023-03-27T18:08:44.401Z,96560.02
2023-03-27T18:11:12.668Z,96555.81
2023-03-27T18:13:40.355Z,96551.14
2023-03-27T18:16:09.871Z,96544.38
2023-03-27T18:18:38.481Z,96546.51
2023-03-27T18:21:07.764Z,96548.52
2023-03-27T18:23:34.822Z,96550.05
2023-03-27T18:26:05.888Z,96548.52
2023-03-27T18:28:33.006Z,96551.70
2023-03-27T18:31:04.733Z,96551.70
2023-03-27T18:33:32.060Z,96544.26
2023-03-27T18:35:59.204Z,96548.27
2023-03-27T18:38:27.336Z,96545.15
2023-03-27T18:40:59.164Z,96546.06
2023-03-27T18:43:26.313Z,96543.08
2023-03-27T18:45:54.095Z,96542.95
2023-03-27T18:48:21.069Z,96542.65
2023-03-27T18:50:58.412Z,96546.64
2023-03-27T18:53:28.348Z,96547.84
2023-03-27T18:55:57.980Z,96546.79
2023-03-27T18:58:26.938Z,96546.50
2023-03-27T19:00:57.382Z,96544.20
2023-03-27T19:03:25.613Z,96542.64
2023-03-27T19:05:52.807Z,96543.10
2023-03-27T19:08:20.784Z,96543.97
2023-03-27T19:10:47.843Z,96546.44
2023-03-27T19:13:21.653Z,96543.63
2023-03-27T19:15:57.912Z,96550.42
2023-03-27T19:19:00.671Z,96553.37
2023-03-27T19:21:46.453Z,96551.72
2023-03-27T19:24:32.565Z,96550.68
2023-03-27T19:26:59.800Z,96548.85
2023-03-27T19:29:26.854Z,96546.38
2023-03-27T19:31:53.958Z,96544.23
2023-03-27T19:34:27.307Z,96542.93
2023-03-27T19:36:59.879Z,96546.77
2023-03-27T19:39:26.729Z,96544.92
2023-03-27T19:41:53.578Z,96544.86
2023-03-27T19:44:20.941Z,96545.98
2023-03-27T19:46:47.892Z,96546.13
2023-03-27T19:49:16.266Z,96548.05
2023-03-27T19:52:06.877Z,96549.02
2023-03-27T19:54:33.926Z,96549.76
2023-03-27T19:57:02.077Z,96549.40
2023-03-27T19:59:31.128Z,96550.67
2023-03-27T20:01:58.996Z,96551.77
2023-03-27T20:04:26.126Z,96551.56
2023-03-27T20:06:53.482Z,96559.30
2023-03-27T20:09:20.576Z,96561.11
2023-03-27T20:11:47.485Z,96562.92
2023-03-27T20:14:14.853Z,96561.08
2023-03-27T20:16:41.796Z,96563.18
2023-03-27T20:19:08.953Z,96564.73
2023-03-27T20:21:40.037Z,96559.70
2023-03-27T20:24:12.061Z,96563.27
2023-03-27T20:26:41.428Z,96568.39
2023-03-27T20:29:16.018Z,96564.44
2023-03-27T20:31:45.269Z,96570.81
2023-03-27T20:34:12.454Z,96567.06
2023-03-27T20:36:39.931Z,96565.67
2023-03-27T20:39:33.639Z,96565.25
2023-03-27T20:42:00.631Z,96557.27
2023-03-27T20:44:34.570Z,96555.27
2023-03-27T20:47:03.084Z,96554.67
2023-03-27T20:49:40.844Z,96553.23
2023-03-27T20:52:09.513Z,96553.72
2023-03-27T20:54:36.368Z,96555.13
2023-03-27T20:57:03.697Z,96555.66
2023-03-27T20:59:30.898Z,96558.52
2023-03-27T21:01:58.775Z,96562.67
2023-03-27T21:04:27.651Z,96564.48
2023-03-27T21:06:57.228Z,96569.95
2023-03-27T21:09:25.583Z,96569.95
2023-03-27T21:11:54.507Z,96569.09
2023-03-27T21:14:21.894Z,96565.63
2023-03-27T21:16:49.043Z,96568.11
2023-03-27T21:19:16.617Z,96558.04
2023-03-27T21:21:44.190Z,96561.09
2023-03-27T21:24:11.152Z,96568.59
2023-03-27T21:26:38.092Z,96573.73
2023-03-27T21:29:05.143Z,96570.86
2023-03-27T21:31:32.357Z,96586.98
2023-03-27T21:33:59.963Z,96585.91
2023-03-27T21:36:29.470Z,96592.20
2023-03-27T21:38:57.242Z,96597.95
2023-03-27T21:41:25.209Z,96598.85
2023-03-27T21:43:52.369Z,96610.50
2023-03-27T21:46:19.468Z,96606.89
2023-03-27T21:48:49.643Z,96616.12
2023-03-27T21:51:17.436Z,96620.61
2023-03-27T21:53:45.361Z,96628.41
2023-03-27T21:56:12.341Z,96637.29
2023-03-27T21:58:39.392Z,96650.08
2023-03-27T22:01:06.484Z,96662.88
2023-03-27T22:03:33.434Z,96673.77
2023-03-27T22:06:12.514Z,96688.48
2023-03-27T22:08:41.433Z,96698.61
2023-03-27T22:11:09.098Z,96711.02
2023-03-27T22:13:36.752Z,96719.74
2023-03-27T22:16:11.731Z,96721.35
2023-03-27T22:18:39.256Z,96728.84
2023-03-27T22:21:21.757Z,96734.96
2023-03-27T22:23:50.242Z,96750.06
2023-03-27T22:26:21.603Z,96752.53
2023-03-27T22:28:48.852Z,96763.48
2023-03-27T22:31:16.094Z,96775.32
2023-03-27T22:33:43.063Z,96781.70
2023-03-27T22:36:11.239Z,96787.90
2023-03-27T22:38:38.726Z,96793.55
2023-03-27T22:41:06.136Z,96799.63
2023-03-27T22:43:33.247Z,96802.16
2023-03-27T22:46:04.612Z,96810.50
2023-03-27T22:48:32.081Z,96816.16
2023-03-27T22:50:59.386Z,96821.89
2023-03-27T22:53:26.441Z,96832.28
2023-03-27T22:55:54.325Z,96831.86
2023-03-27T22:58:21.124Z,96836.01
2023-03-27T23:00:49.276Z,96836.50
2023-03-27T23:03:16.987Z,96853.75
2023-03-27T23:05:45.084Z,96855.45
2023-03-27T23:08:12.033Z,96866.14
2023-03-27T23:10:39.091Z,96863.83
2023-03-27T23:13:07.377Z,96865.35
2023-03-27T23:15:34.530Z,96877.02
2023-03-27T23:18:02.123Z,96880.34
2023-03-27T23:20:30.677Z,96885.68
2023-03-27T23:22:57.527Z,96888.98
2023-03-27T23:25:24.482Z,96902.30
2023-03-27T23:27:51.443Z,96916.52
2023-03-27T23:30:18.231Z,96922.01
2023-03-27T23:32:45.089Z,96925.60
2023-03-27T23:35:12.228Z,96925.58
2023-03-27T23:37:39.230Z,96938.70
2023-03-27T23:40:06.816Z,96945.36
2023-03-27T23:42:33.900Z,96956.36
2023-03-27T23:45:00.712Z,96958.85
2023-03-27T23:47:27.675Z,96965.84
2023-03-27T23:49:55.314Z,96966.75
2023-03-27T23:52:22.162Z,96977.80
2023-03-27T23:54:49.142Z,96984.65
2023-03-27T23:57:16.223Z,96986.94
2023-03-27T23:59:43.222Z,96991.15
